Nanning Wuxu Airport
ZGNN : now visible

Airfield :











YOU CAN JOIN US ON...

 
LOGIN :

Register | Disclaimer

   EN    FR    IT 

 









Legend :    VFR   Marginal VFR   IFR   Intensive IFR   Very Intensive IFR
Visi :
Ceiling :
>= 8 km
>= 3000ft
5 to 8 km
1000 to 3000 ft
1500m to 5 km
500 to 1000 ft
800 to 1500m
200 to 500 ft
< 800m
< 200 ft
Symbols :   Thunderstorms  Fog  Heavy snow  Heavy precipitations  Wind > 20 kt






- Airport Elevation : 421 ft
- IATA code : NNG


ZGNN - Nanning Wuxu

CURRENT METAR :
  • 250200Z 35002MPS 300V040 CAVOK 28/23 Q1014 NOSIG

EXPIRED METARs :
  • 250100Z VRB01MPS CAVOK 26/22 Q1013 NOSIG
  • 250000Z 23002MPS 200V280 CAVOK 24/23 Q1013 NOSIG

TAF TAF ZGNN
Valid from the 25 at 00:00 until the 26 at 00:00 UTC


242106Z 2500/2524 01003MPS 5000 BR SCT033 TX33/2507Z TN23/2522Z
TEMPO 2505/2511 SCT013 FEW026CB BKN033
ZGZU FIR / Asia



MET'MAP, your aeronautical weather chart ! - Copyright ORBIFLY December 2007 - Disclaimer

ORBIFLY MET'MAP TEAM :

Programming & Development : Alexandra Zaïnal
Original concept : Baudouin d'Aumeries
Technical & hardware support : Manuel Goepfert
Assistance : Marc-Olivier Méhu




SOURCES & CREDITS :

   NOAA       Earth
Advisory